Time;durP1;ratioP1;P1;durP2;ratioP2;P2;SDS_P1;SDS_P2;PMS_P1;PMS_P2;Temp;Humidity;BMP_temperature;BMP_pressure;BME280_temperature;BME280_humidity;BME280_pressure;Samples;Min_cycle;Max_cycle;Signal;HPM_P1;HPM_P2
2023/05/10 00:00:26;;;;;;;1.37;1.37;;;;;;;;;;5010957;28;20833;-75
2023/05/10 00:02:58;;;;;;;1.10;1.10;;;;;;;;;;5012118;28;20459;-74
2023/05/10 00:05:34;;;;;;;1.40;1.30;;;;;;;;;;5014822;28;20790;-76
2023/05/10 00:08:12;;;;;;;1.00;1.00;;;;;;;;;;5015710;28;20459;-74
2023/05/10 00:10:44;;;;;;;1.23;1.23;;;;;;;;;;5013552;28;20443;-76
2023/05/10 00:13:16;;;;;;;1.23;1.23;;;;;;;;;;5010728;28;20493;-74
2023/05/10 00:15:47;;;;;;;1.07;1.07;;;;;;;;;;5010535;28;20542;-74
2023/05/10 00:18:16;;;;;;;1.43;1.10;;;;;;;;;;5011247;28;20479;-78
2023/05/10 00:20:45;;;;;;;1.07;1.07;;;;;;;;;;5010996;28;20483;-74
2023/05/10 00:23:19;;;;;;;1.83;1.10;;;;;;;;;;5011085;28;20463;-74
2023/05/10 00:25:51;;;;;;;0.87;0.87;;;;;;;;;;5010979;28;20459;-75
2023/05/10 00:28:37;;;;;;;0.93;0.93;;;;;;;;;;5012120;28;20482;-74
2023/05/10 00:31:11;;;;;;;2.00;0.50;;;;;;;;;;5016283;28;20597;-75
2023/05/10 00:33:39;;;;;;;0.60;0.60;;;;;;;;;;5014975;28;20570;-76
2023/05/10 00:36:10;;;;;;;0.63;0.63;;;;;;;;;;5015092;28;20526;-74
2023/05/10 00:38:40;;;;;;;0.90;0.53;;;;;;;;;;5015006;28;20477;-75
2023/05/10 00:41:10;;;;;;;2.33;1.00;;;;;;;;;;5017399;28;20475;-76
2023/05/10 00:43:39;;;;;;;0.50;0.50;;;;;;;;;;5014720;28;20669;-74
2023/05/10 00:46:19;;;;;;;0.53;0.53;;;;;;;;;;5015606;28;20455;-74
2023/05/10 00:48:49;;;;;;;0.53;0.53;;;;;;;;;;5015731;28;20522;-75
2023/05/10 00:51:18;;;;;;;0.50;0.50;;;;;;;;;;5016412;28;20431;-75
2023/05/10 00:53:56;;;;;;;0.50;0.50;;;;;;;;;;5016149;28;20524;-75
2023/05/10 00:56:29;;;;;;;0.60;0.60;;;;;;;;;;5015542;28;20550;-77
2023/05/10 00:59:00;;;;;;;0.40;0.40;;;;;;;;;;5014884;28;20521;-76
2023/05/10 01:01:38;;;;;;;1.07;0.77;;;;;;;;;;5014700;28;20565;-75
2023/05/10 01:04:07;;;;;;;0.40;0.40;;;;;;;;;;5014685;28;20455;-75
2023/05/10 01:06:38;;;;;;;0.50;0.50;;;;;;;;;;5014423;28;20489;-76
2023/05/10 01:09:07;;;;;;;2.20;0.47;;;;;;;;;;5014591;28;20475;-75
2023/05/10 01:11:36;;;;;;;0.57;0.57;;;;;;;;;;5013617;28;20455;-75
2023/05/10 01:14:04;;;;;;;0.50;0.50;;;;;;;;;;5013500;28;20483;-75
2023/05/10 01:16:36;;;;;;;2.00;0.50;;;;;;;;;;5013949;28;20451;-75
2023/05/10 01:19:06;;;;;;;3.60;0.40;;;;;;;;;;5013604;28;20464;-75
2023/05/10 01:21:40;;;;;;;0.90;0.50;;;;;;;;;;5013549;28;20533;-75
2023/05/10 01:24:34;;;;;;;0.50;0.50;;;;;;;;;;5013577;28;20455;-76
2023/05/10 01:27:29;;;;;;;1.13;0.60;;;;;;;;;;5013736;28;20420;-75
2023/05/10 01:30:14;;;;;;;1.03;0.50;;;;;;;;;;5000188;28;20495;-75
2023/05/10 01:32:55;;;;;;;0.70;0.70;;;;;;;;;;5013291;28;20448;-75
2023/05/10 01:35:31;;;;;;;0.60;0.60;;;;;;;;;;5014168;28;20458;-75
2023/05/10 01:38:06;;;;;;;0.60;0.60;;;;;;;;;;5014795;28;20455;-76
2023/05/10 01:40:37;;;;;;;1.43;0.80;;;;;;;;;;5015196;28;20451;-75
2023/05/10 01:43:06;;;;;;;0.70;0.70;;;;;;;;;;5015177;28;20534;-74
2023/05/10 01:45:43;;;;;;;0.70;0.70;;;;;;;;;;5015315;28;20455;-77
2023/05/10 01:48:17;;;;;;;0.80;0.80;;;;;;;;;;5014261;28;20509;-77
2023/05/10 01:50:50;;;;;;;2.20;0.60;;;;;;;;;;5014236;28;20478;-75
2023/05/10 01:53:22;;;;;;;1.47;0.80;;;;;;;;;;5016972;28;20456;-75
2023/05/10 01:55:52;;;;;;;1.53;0.70;;;;;;;;;;5018293;28;20493;-75
2023/05/10 01:58:24;;;;;;;1.83;0.70;;;;;;;;;;5017691;28;20477;-75
2023/05/10 02:00:53;;;;;;;0.60;0.60;;;;;;;;;;5017842;28;20899;-77
2023/05/10 02:03:24;;;;;;;1.00;0.87;;;;;;;;;;5018587;28;20452;-75
2023/05/10 02:05:54;;;;;;;0.70;0.70;;;;;;;;;;5018133;28;20454;-76
2023/05/10 02:08:26;;;;;;;0.60;0.60;;;;;;;;;;5018438;28;20467;-75
2023/05/10 02:10:56;;;;;;;0.70;0.70;;;;;;;;;;5019161;28;20535;-76
2023/05/10 02:13:31;;;;;;;0.60;0.60;;;;;;;;;;5018975;28;20486;-75
2023/05/10 02:15:59;;;;;;;1.77;1.00;;;;;;;;;;5018517;28;20443;-77
2023/05/10 02:18:32;;;;;;;0.80;0.80;;;;;;;;;;5017656;28;20471;-74
2023/05/10 02:21:05;;;;;;;0.63;0.63;;;;;;;;;;5018391;28;20471;-75
2023/05/10 02:23:37;;;;;;;0.70;0.70;;;;;;;;;;5017913;28;20451;-75
2023/05/10 02:26:18;;;;;;;0.57;0.57;;;;;;;;;;5015202;28;20498;-77
2023/05/10 02:28:50;;;;;;;1.30;0.67;;;;;;;;;;5016084;28;20541;-75
2023/05/10 02:31:21;;;;;;;0.60;0.60;;;;;;;;;;5013694;28;20458;-75
2023/05/10 02:33:57;;;;;;;0.80;0.80;;;;;;;;;;5011864;28;20463;-76
2023/05/10 02:36:41;;;;;;;0.77;0.70;;;;;;;;;;5012190;28;20466;-75
2023/05/10 02:39:12;;;;;;;0.60;0.60;;;;;;;;;;5014998;28;20474;-76
2023/05/10 02:41:41;;;;;;;0.67;0.67;;;;;;;;;;5014831;28;20510;-76
2023/05/10 02:44:13;;;;;;;1.07;0.67;;;;;;;;;;5014550;28;20460;-75
2023/05/10 02:46:41;;;;;;;1.17;0.80;;;;;;;;;;5012948;28;20455;-75
2023/05/10 02:49:11;;;;;;;0.60;0.60;;;;;;;;;;5012934;28;20479;-76
2023/05/10 02:51:43;;;;;;;0.70;0.70;;;;;;;;;;5012929;28;20452;-76
2023/05/10 02:54:18;;;;;;;2.40;0.77;;;;;;;;;;5013676;28;20550;-77
2023/05/10 02:56:52;;;;;;;1.37;0.77;;;;;;;;;;5013942;28;20470;-77
2023/05/10 02:59:23;;;;;;;0.57;0.57;;;;;;;;;;5013082;28;20479;-75
2023/05/10 03:01:51;;;;;;;1.13;0.50;;;;;;;;;;5013645;28;21023;-75
2023/05/10 03:04:30;;;;;;;0.60;0.60;;;;;;;;;;5013536;28;20446;-73
2023/05/10 03:07:06;;;;;;;0.93;0.80;;;;;;;;;;5014730;28;20459;-76
2023/05/10 03:09:39;;;;;;;0.90;0.70;;;;;;;;;;5015000;28;20471;-75
2023/05/10 03:12:14;;;;;;;1.23;0.70;;;;;;;;;;5013958;28;20459;-75
2023/05/10 03:15:00;;;;;;;0.80;0.80;;;;;;;;;;5014392;28;20482;-77
2023/05/10 03:17:42;;;;;;;0.93;0.90;;;;;;;;;;5014652;28;20768;-75
2023/05/10 03:20:19;;;;;;;1.07;0.87;;;;;;;;;;5015992;28;20478;-76
2023/05/10 03:22:49;;;;;;;0.70;0.70;;;;;;;;;;5015784;28;20458;-77
2023/05/10 03:25:18;;;;;;;1.10;1.00;;;;;;;;;;5014929;28;20462;-75
2023/05/10 03:27:49;;;;;;;1.07;0.83;;;;;;;;;;5014285;28;20455;-75
2023/05/10 03:30:21;;;;;;;1.17;1.17;;;;;;;;;;5013972;28;20436;-75
2023/05/10 03:32:49;;;;;;;1.00;1.00;;;;;;;;;;5012889;28;20455;-76
2023/05/10 03:35:19;;;;;;;1.33;1.23;;;;;;;;;;5013243;28;20459;-76
2023/05/10 03:37:57;;;;;;;1.00;1.00;;;;;;;;;;5012179;28;20483;-76
2023/05/10 03:40:25;;;;;;;1.10;1.03;;;;;;;;;;5011879;28;20509;-75
2023/05/10 03:42:54;;;;;;;1.20;1.20;;;;;;;;;;5010572;28;20492;-75
2023/05/10 03:45:22;;;;;;;1.20;1.20;;;;;;;;;;5011908;28;20459;-76
2023/05/10 03:47:53;;;;;;;1.00;1.00;;;;;;;;;;5012045;28;20456;-76
2023/05/10 03:50:22;;;;;;;1.00;1.00;;;;;;;;;;5012243;28;20463;-75
2023/05/10 03:52:51;;;;;;;0.93;0.93;;;;;;;;;;5012574;28;20546;-75
2023/05/10 03:55:18;;;;;;;1.83;1.10;;;;;;;;;;5012047;28;20478;-75
2023/05/10 03:57:46;;;;;;;1.73;1.00;;;;;;;;;;5012404;28;20463;-77
2023/05/10 04:00:14;;;;;;;1.40;1.40;;;;;;;;;;5012615;28;20694;-77
2023/05/10 04:02:42;;;;;;;1.13;1.13;;;;;;;;;;5012878;28;20503;-77
2023/05/10 04:05:10;;;;;;;1.30;1.20;;;;;;;;;;5016488;28;20427;-77
2023/05/10 04:07:44;;;;;;;1.60;1.50;;;;;;;;;;5017435;28;20424;-75
2023/05/10 04:10:11;;;;;;;1.20;1.20;;;;;;;;;;5016652;28;20471;-77
2023/05/10 04:12:39;;;;;;;1.53;1.43;;;;;;;;;;5015470;28;20970;-77
2023/05/10 04:15:07;;;;;;;1.17;1.10;;;;;;;;;;5015893;28;20451;-76
2023/05/10 04:17:40;;;;;;;1.43;1.33;;;;;;;;;;5016178;28;20475;-77
2023/05/10 04:20:15;;;;;;;1.40;1.40;;;;;;;;;;5015914;28;20495;-76
2023/05/10 04:22:46;;;;;;;1.60;1.50;;;;;;;;;;5017588;28;20521;-75
2023/05/10 04:25:13;;;;;;;1.30;1.30;;;;;;;;;;5017949;28;20459;-75
2023/05/10 04:27:47;;;;;;;1.37;1.30;;;;;;;;;;5016286;28;20455;-76
2023/05/10 04:30:16;;;;;;;1.40;1.40;;;;;;;;;;5016143;28;20503;-75
2023/05/10 04:32:44;;;;;;;1.10;1.10;;;;;;;;;;5016471;28;20452;-76
2023/05/10 04:35:20;;;;;;;1.37;1.30;;;;;;;;;;5017839;28;20462;-75
2023/05/10 04:37:49;;;;;;;1.33;1.23;;;;;;;;;;5018597;28;20477;-75
2023/05/10 04:40:20;;;;;;;1.33;1.33;;;;;;;;;;5015716;28;20519;-75
2023/05/10 04:42:50;;;;;;;1.53;1.43;;;;;;;;;;5020258;28;20478;-77
2023/05/10 04:45:19;;;;;;;1.43;1.43;;;;;;;;;;5036298;28;20459;-76
2023/05/10 04:47:51;;;;;;;1.83;1.47;;;;;;;;;;5015640;28;20462;-76
2023/05/10 04:50:20;;;;;;;1.10;1.10;;;;;;;;;;5015569;28;21014;-77
2023/05/10 04:52:49;;;;;;;2.10;1.40;;;;;;;;;;5014916;28;20949;-75
2023/05/10 04:55:17;;;;;;;1.60;1.50;;;;;;;;;;5015771;28;20456;-76
2023/05/10 04:57:47;;;;;;;1.57;1.47;;;;;;;;;;5015515;28;20475;-76
2023/05/10 05:00:18;;;;;;;2.30;2.20;;;;;;;;;;5015721;28;20468;-76
2023/05/10 05:02:55;;;;;;;1.50;1.40;;;;;;;;;;5020291;28;20529;-75
2023/05/10 05:05:23;;;;;;;1.33;1.33;;;;;;;;;;5024179;28;20483;-77
2023/05/10 05:07:52;;;;;;;2.60;1.87;;;;;;;;;;5024849;28;20462;-77
2023/05/10 05:10:22;;;;;;;8.60;3.10;;;;;;;;;;5025076;28;20452;-75
2023/05/10 05:12:50;;;;;;;1.60;1.50;;;;;;;;;;5025598;28;20443;-75
2023/05/10 05:15:18;;;;;;;2.87;1.60;;;;;;;;;;5027340;28;20461;-76
2023/05/10 05:17:46;;;;;;;1.50;1.40;;;;;;;;;;5029228;28;20428;-77
2023/05/10 05:20:14;;;;;;;2.40;1.60;;;;;;;;;;5025074;28;20486;-76
2023/05/10 05:22:51;;;;;;;2.60;2.17;;;;;;;;;;5020549;28;20502;-77
2023/05/10 05:25:20;;;;;;;1.87;1.77;;;;;;;;;;5022279;28;20459;-77
2023/05/10 05:27:48;;;;;;;5.23;4.07;;;;;;;;;;5024556;28;20456;-76
2023/05/10 05:30:16;;;;;;;1.93;1.70;;;;;;;;;;5027792;28;20459;-75
2023/05/10 05:32:44;;;;;;;1.90;1.53;;;;;;;;;;5025869;28;20891;-76
2023/05/10 05:35:15;;;;;;;2.00;1.90;;;;;;;;;;5026167;28;20482;-75
2023/05/10 05:37:43;;;;;;;3.83;1.63;;;;;;;;;;5025544;28;20451;-77
2023/05/10 05:40:14;;;;;;;1.60;1.40;;;;;;;;;;5020408;28;20478;-77
2023/05/10 05:42:43;;;;;;;1.40;1.30;;;;;;;;;;5017698;28;20536;-79
2023/05/10 05:45:12;;;;;;;1.40;1.30;;;;;;;;;;5018642;28;20531;-76
2023/05/10 05:47:42;;;;;;;5.87;5.37;;;;;;;;;;5019489;28;20893;-77
2023/05/10 05:50:11;;;;;;;1.50;1.50;;;;;;;;;;5015065;28;20471;-76
2023/05/10 05:52:39;;;;;;;2.90;1.70;;;;;;;;;;5015113;28;20870;-77
2023/05/10 05:55:08;;;;;;;2.10;1.73;;;;;;;;;;5015118;28;20451;-75
2023/05/10 05:57:39;;;;;;;2.13;1.80;;;;;;;;;;5015557;28;20455;-78
2023/05/10 06:00:10;;;;;;;9.50;1.93;;;;;;;;;;5019377;28;20531;-76
2023/05/10 06:02:39;;;;;;;1.70;1.60;;;;;;;;;;5014232;28;20494;-76
2023/05/10 06:05:08;;;;;;;2.10;1.90;;;;;;;;;;5015570;28;20435;-78
2023/05/10 06:07:36;;;;;;;2.07;1.40;;;;;;;;;;5015465;28;20534;-76
2023/05/10 06:10:07;;;;;;;1.97;1.80;;;;;;;;;;5016395;28;20550;-77
2023/05/10 06:12:37;;;;;;;1.70;1.60;;;;;;;;;;5016337;28;20483;-76
2023/05/10 06:15:08;;;;;;;2.20;2.00;;;;;;;;;;5016944;28;20950;-77
2023/05/10 06:17:42;;;;;;;2.00;1.90;;;;;;;;;;5015833;28;20420;-78
2023/05/10 06:20:11;;;;;;;1.90;1.67;;;;;;;;;;5015051;28;20506;-77
2023/05/10 06:22:39;;;;;;;2.40;1.70;;;;;;;;;;5014880;28;20510;-76
2023/05/10 06:25:17;;;;;;;2.10;1.67;;;;;;;;;;5014625;28;20495;-78
2023/05/10 06:27:56;;;;;;;2.57;2.07;;;;;;;;;;5015466;28;20542;-76
2023/05/10 06:30:28;;;;;;;2.40;2.30;;;;;;;;;;5015578;28;20451;-77
2023/05/10 06:33:02;;;;;;;1.80;1.70;;;;;;;;;;5014130;28;20451;-77
2023/05/10 06:35:35;;;;;;;2.07;1.87;;;;;;;;;;5014137;28;20505;-78
2023/05/10 06:38:06;;;;;;;1.97;1.87;;;;;;;;;;5013944;28;20459;-78
2023/05/10 06:40:34;;;;;;;1.93;1.83;;;;;;;;;;5014834;28;20490;-76
2023/05/10 06:43:01;;;;;;;1.60;1.50;;;;;;;;;;5013726;28;20479;-77
2023/05/10 06:45:29;;;;;;;1.70;1.60;;;;;;;;;;5014822;28;20447;-76
2023/05/10 06:48:02;;;;;;;2.30;2.20;;;;;;;;;;5014516;28;20451;-78
2023/05/10 06:50:30;;;;;;;1.97;1.67;;;;;;;;;;5015292;28;20448;-75
2023/05/10 06:52:58;;;;;;;1.87;1.77;;;;;;;;;;5014649;28;20459;-77
2023/05/10 06:55:27;;;;;;;1.87;1.73;;;;;;;;;;5016049;28;20455;-76
2023/05/10 06:57:55;;;;;;;2.40;2.30;;;;;;;;;;5015231;28;20801;-76
2023/05/10 07:00:23;;;;;;;2.40;1.90;;;;;;;;;;5013071;28;20460;-75
2023/05/10 07:02:53;;;;;;;2.10;1.90;;;;;;;;;;5013724;28;20471;-75
2023/05/10 07:05:23;;;;;;;3.10;1.70;;;;;;;;;;5013364;28;20451;-78
2023/05/10 07:07:53;;;;;;;3.83;2.10;;;;;;;;;;5015032;28;20482;-76
2023/05/10 07:10:25;;;;;;;3.10;1.83;;;;;;;;;;5013672;28;20459;-76
2023/05/10 07:12:55;;;;;;;1.90;1.80;;;;;;;;;;5014704;28;21039;-76
2023/05/10 07:15:24;;;;;;;2.13;1.93;;;;;;;;;;5015151;28;20502;-75
2023/05/10 07:17:52;;;;;;;2.10;2.00;;;;;;;;;;5015002;28;20475;-75
2023/05/10 07:20:22;;;;;;;1.60;1.50;;;;;;;;;;5015200;28;20479;-78
2023/05/10 07:22:51;;;;;;;1.83;1.73;;;;;;;;;;5013156;28;20576;-77
2023/05/10 07:25:18;;;;;;;1.77;1.67;;;;;;;;;;5013915;28;20463;-77
2023/05/10 07:27:48;;;;;;;1.90;1.80;;;;;;;;;;5014483;28;20452;-77
2023/05/10 07:30:16;;;;;;;2.07;1.97;;;;;;;;;;5013915;28;20996;-77
2023/05/10 07:32:43;;;;;;;1.70;1.60;;;;;;;;;;5013358;28;20506;-76
2023/05/10 07:35:11;;;;;;;1.73;1.57;;;;;;;;;;5012674;28;20851;-76
2023/05/10 07:37:41;;;;;;;1.93;1.73;;;;;;;;;;5014556;28;20454;-75
2023/05/10 07:40:09;;;;;;;1.60;1.43;;;;;;;;;;5017519;28;20482;-75
2023/05/10 07:42:38;;;;;;;2.43;2.23;;;;;;;;;;5016911;28;20533;-75
2023/05/10 07:45:06;;;;;;;1.70;1.60;;;;;;;;;;5016032;28;20481;-78
2023/05/10 07:47:37;;;;;;;1.90;1.80;;;;;;;;;;5016247;28;20474;-76
2023/05/10 07:50:07;;;;;;;1.90;1.50;;;;;;;;;;5015917;28;20540;-77
2023/05/10 07:52:42;;;;;;;1.90;1.30;;;;;;;;;;5017354;28;20466;-77
2023/05/10 07:55:31;;;;;;;1.37;1.30;;;;;;;;;;5017826;28;20516;-76
2023/05/10 07:58:11;;;;;;;1.30;1.20;;;;;;;;;;5012026;28;20451;-76
2023/05/10 08:00:45;;;;;;;3.10;1.40;;;;;;;;;;5020797;28;20451;-77
2023/05/10 08:03:26;;;;;;;1.67;1.60;;;;;;;;;;5022221;28;20487;-76
2023/05/10 08:06:02;;;;;;;1.30;1.20;;;;;;;;;;5023468;28;20455;-76
2023/05/10 08:08:30;;;;;;;1.00;1.00;;;;;;;;;;5023471;28;20509;-76
2023/05/10 08:11:02;;;;;;;1.30;1.10;;;;;;;;;;5023513;28;20463;-77
2023/05/10 08:13:33;;;;;;;1.37;1.27;;;;;;;;;;5022742;28;20455;-77
2023/05/10 08:16:17;;;;;;;1.43;1.20;;;;;;;;;;5023789;28;20486;-78
2023/05/10 08:18:47;;;;;;;1.30;1.20;;;;;;;;;;5023957;28;20498;-76
2023/05/10 08:21:17;;;;;;;1.03;1.00;;;;;;;;;;5024240;28;20459;-77
2023/05/10 08:23:48;;;;;;;0.90;0.90;;;;;;;;;;5020965;28;20479;-76
2023/05/10 08:26:20;;;;;;;1.40;1.30;;;;;;;;;;5023241;28;20523;-76
2023/05/10 08:28:54;;;;;;;1.73;1.00;;;;;;;;;;5022753;28;20471;-76
2023/05/10 08:31:32;;;;;;;0.80;0.80;;;;;;;;;;5021093;28;21288;-76
2023/05/10 08:34:01;;;;;;;1.10;0.80;;;;;;;;;;5023812;28;20447;-76
2023/05/10 08:36:36;;;;;;;1.37;0.80;;;;;;;;;;5023782;28;20471;-78
2023/05/10 08:39:28;;;;;;;0.90;0.90;;;;;;;;;;5025210;28;20479;-76
2023/05/10 08:42:20;;;;;;;1.00;1.00;;;;;;;;;;5027113;28;20434;-76
2023/05/10 08:45:02;;;;;;;2.33;1.10;;;;;;;;;;5025749;28;20448;-76
2023/05/10 08:47:43;;;;;;;1.27;1.13;;;;;;;;;;5020895;28;20470;-76
2023/05/10 08:50:21;;;;;;;4.63;1.00;;;;;;;;;;5022089;28;20494;-77
2023/05/10 08:52:54;;;;;;;2.67;1.37;;;;;;;;;;5023985;28;20499;-75
2023/05/10 08:55:27;;;;;;;2.30;1.50;;;;;;;;;;5025040;28;20448;-74
2023/05/10 08:58:00;;;;;;;1.43;1.30;;;;;;;;;;5023814;28;20454;-74
2023/05/10 09:00:53;;;;;;;2.67;1.30;;;;;;;;;;5029366;28;20467;-78
2023/05/10 09:06:15;;;;;;;1.23;0.80;;;;;;;;;;5021747;28;20458;-76
2023/05/10 09:08:49;;;;;;;1.57;1.10;;;;;;;;;;5027785;28;20463;-75
2023/05/10 09:11:20;;;;;;;1.00;1.00;;;;;;;;;;5026771;28;20451;-77
2023/05/10 09:13:53;;;;;;;0.77;0.77;;;;;;;;;;5025402;28;20443;-75
2023/05/10 09:16:25;;;;;;;1.40;0.70;;;;;;;;;;5023693;28;20447;-76
2023/05/10 09:18:55;;;;;;;1.60;0.77;;;;;;;;;;5025450;28;20470;-76
2023/05/10 09:21:27;;;;;;;1.23;0.90;;;;;;;;;;5020585;28;20482;-76
2023/05/10 09:24:10;;;;;;;0.80;0.80;;;;;;;;;;5027738;28;20487;-75
2023/05/10 09:26:50;;;;;;;0.67;0.67;;;;;;;;;;5023635;28;20455;-76
2023/05/10 09:29:54;;;;;;;0.63;0.63;;;;;;;;;;5029533;28;20451;-74
2023/05/10 09:32:41;;;;;;;1.40;1.07;;;;;;;;;;5030592;28;20451;-76
2023/05/10 09:35:25;;;;;;;;;;;;;;;;;;;;;
2023/05/10 09:38:10;;;;;;;0.80;0.80;;;;;;;;;;5030928;28;20437;-75
2023/05/10 09:40:54;;;;;;;0.70;0.70;;;;;;;;;;5031499;28;20440;-78
2023/05/10 09:49:27;;;;;;;0.60;0.60;;;;;;;;;;5032275;28;20477;-77
2023/05/10 09:52:06;;;;;;;0.60;0.60;;;;;;;;;;5028035;28;20462;-75
2023/05/10 09:57:24;;;;;;;0.90;0.90;;;;;;;;;;5020390;28;20526;-77
2023/05/10 10:00:13;;;;;;;1.30;0.83;;;;;;;;;;5025815;28;20471;-77
2023/05/10 10:03:03;;;;;;;2.10;0.70;;;;;;;;;;5025036;28;20479;-76
2023/05/10 10:05:42;;;;;;;0.90;0.90;;;;;;;;;;5022892;28;20467;-76
2023/05/10 10:08:27;;;;;;;0.70;0.70;;;;;;;;;;5021399;28;20455;-76
2023/05/10 10:10:55;;;;;;;1.33;0.80;;;;;;;;;;5023710;28;20516;-75
2023/05/10 10:13:25;;;;;;;1.00;1.00;;;;;;;;;;5022161;28;20515;-75
2023/05/10 10:16:09;;;;;;;1.10;1.00;;;;;;;;;;5019855;28;20539;-77
2023/05/10 10:18:40;;;;;;;0.80;0.80;;;;;;;;;;5019745;28;20467;-76
2023/05/10 10:21:20;;;;;;;0.80;0.70;;;;;;;;;;5020883;28;20945;-78
2023/05/10 10:23:55;;;;;;;0.90;0.90;;;;;;;;;;5018940;28;20502;-76
2023/05/10 10:26:42;;;;;;;0.80;0.80;;;;;;;;;;5020757;28;20443;-79
2023/05/10 10:29:16;;;;;;;1.43;0.87;;;;;;;;;;5019961;28;20490;-76
2023/05/10 10:31:54;;;;;;;1.23;0.90;;;;;;;;;;5017945;28;20867;-78
2023/05/10 10:34:38;;;;;;;1.40;0.90;;;;;;;;;;5023251;28;20454;-77
2023/05/10 10:37:24;;;;;;;;;;;;;;;;;;;;;
2023/05/10 10:49:19;;;;;;;1.43;1.20;;;;;;;;;;5016533;28;20506;-79
2023/05/10 10:55:18;;;;;;;0.73;0.73;;;;;;;;;;5019053;28;20424;-78
2023/05/10 10:58:21;;;;;;;0.90;0.90;;;;;;;;;;5021669;28;20497;-75
2023/05/10 11:00:52;;;;;;;2.60;0.80;;;;;;;;;;5021154;28;20462;-76
2023/05/10 11:03:23;;;;;;;7.20;0.80;;;;;;;;;;5018970;28;20841;-75
2023/05/10 11:06:02;;;;;;;1.27;0.80;;;;;;;;;;5016205;28;20447;-77
2023/05/10 11:08:38;;;;;;;1.13;0.50;;;;;;;;;;5015584;28;20502;-78
2023/05/10 11:11:19;;;;;;;1.43;1.00;;;;;;;;;;5015651;28;20451;-77
2023/05/10 11:13:55;;;;;;;0.67;0.60;;;;;;;;;;5015070;28;20810;-78
2023/05/10 11:16:43;;;;;;;0.70;0.47;;;;;;;;;;5015681;28;20856;-76
2023/05/10 11:19:18;;;;;;;0.40;0.40;;;;;;;;;;5014662;28;20521;-79
2023/05/10 11:22:19;;;;;;;1.80;1.10;;;;;;;;;;5014448;28;20454;-77
2023/05/10 11:28:00;;;;;;;1.33;0.77;;;;;;;;;;5015645;28;20511;-78
2023/05/10 11:33:29;;;;;;;1.83;0.70;;;;;;;;;;5014217;28;20995;-80
2023/05/10 11:36:09;;;;;;;0.80;0.70;;;;;;;;;;5014080;28;20447;-76
2023/05/10 11:39:05;;;;;;;2.43;0.80;;;;;;;;;;5013501;28;20891;-76
2023/05/10 11:41:45;;;;;;;2.23;1.00;;;;;;;;;;5012795;28;20953;-78
2023/05/10 11:44:19;;;;;;;1.20;1.10;;;;;;;;;;5012605;28;20487;-76
2023/05/10 11:46:57;;;;;;;1.93;0.90;;;;;;;;;;5012461;28;20451;-78
2023/05/10 11:49:33;;;;;;;0.80;0.80;;;;;;;;;;5012925;28;20490;-76
2023/05/10 11:52:12;;;;;;;1.77;1.10;;;;;;;;;;5012861;28;20465;-76
2023/05/10 11:55:02;;;;;;;1.80;0.90;;;;;;;;;;5013306;28;20454;-78
2023/05/10 11:57:38;;;;;;;2.87;0.73;;;;;;;;;;5013184;28;20527;-78
2023/05/10 12:00:30;;;;;;;2.00;1.20;;;;;;;;;;5014076;28;20625;-77
2023/05/10 12:03:25;;;;;;;0.80;0.80;;;;;;;;;;5013991;28;20491;-79
2023/05/10 12:06:11;;;;;;;0.80;0.80;;;;;;;;;;5013826;28;20981;-76
2023/05/10 12:08:53;;;;;;;0.80;0.80;;;;;;;;;;5014109;28;20483;-77
2023/05/10 12:11:31;;;;;;;1.30;1.20;;;;;;;;;;5013673;28;20423;-77
2023/05/10 12:14:06;;;;;;;1.03;1.03;;;;;;;;;;5013041;28;20449;-78
2023/05/10 12:16:52;;;;;;;1.57;1.47;;;;;;;;;;5013399;28;20473;-77
2023/05/10 12:19:43;;;;;;;3.40;1.20;;;;;;;;;;5009360;28;20471;-76
2023/05/10 12:22:14;;;;;;;1.33;1.17;;;;;;;;;;5012814;28;20446;-77
2023/05/10 12:24:43;;;;;;;1.63;1.03;;;;;;;;;;5016611;28;20967;-75
2023/05/10 12:27:12;;;;;;;1.70;1.10;;;;;;;;;;5017251;28;20562;-76
2023/05/10 12:29:46;;;;;;;2.20;1.00;;;;;;;;;;5017598;28;21000;-76
2023/05/10 12:32:17;;;;;;;1.40;1.30;;;;;;;;;;5016246;28;20490;-76
2023/05/10 12:34:52;;;;;;;1.80;1.33;;;;;;;;;;5016484;28;20493;-77
2023/05/10 12:37:29;;;;;;;2.13;1.43;;;;;;;;;;5016525;28;20450;-76
2023/05/10 12:40:01;;;;;;;1.80;1.70;;;;;;;;;;5016910;28;20482;-76
2023/05/10 12:42:36;;;;;;;2.73;1.27;;;;;;;;;;5016738;28;20463;-76
2023/05/10 12:45:06;;;;;;;3.23;1.60;;;;;;;;;;5015956;28;20478;-77
2023/05/10 12:50:24;;;;;;;1.13;1.03;;;;;;;;;;4975372;28;20971;-78
2023/05/10 12:52:53;;;;;;;2.40;1.27;;;;;;;;;;5016366;28;20435;-78
2023/05/10 12:55:31;;;;;;;1.33;1.10;;;;;;;;;;5017546;28;20564;-77
2023/05/10 12:58:13;;;;;;;2.07;1.40;;;;;;;;;;5018111;28;20522;-76
2023/05/10 13:00:44;;;;;;;1.47;1.20;;;;;;;;;;5018954;28;20458;-76
2023/05/10 13:03:19;;;;;;;1.00;1.00;;;;;;;;;;5021793;28;20454;-76
2023/05/10 13:05:59;;;;;;;1.10;1.00;;;;;;;;;;5022030;28;20446;-75
2023/05/10 13:08:33;;;;;;;1.20;1.20;;;;;;;;;;5018713;28;20475;-76
2023/05/10 13:11:10;;;;;;;1.63;1.40;;;;;;;;;;5016785;28;20467;-77
2023/05/10 13:16:28;;;;;;;1.23;1.20;;;;;;;;;;5014353;28;20431;-76
2023/05/10 13:19:02;;;;;;;1.00;1.00;;;;;;;;;;5016782;28;20530;-79
2023/05/10 13:24:25;;;;;;;1.00;1.00;;;;;;;;;;5013841;28;20475;-77
2023/05/10 13:27:15;;;;;;;1.73;1.10;;;;;;;;;;5016297;28;20538;-78
2023/05/10 13:29:50;;;;;;;1.10;1.10;;;;;;;;;;5016056;28;20467;-77
2023/05/10 13:32:29;;;;;;;2.63;1.20;;;;;;;;;;5016037;28;20454;-75
2023/05/10 13:35:14;;;;;;;1.20;1.10;;;;;;;;;;5015817;28;20447;-77
2023/05/10 13:37:44;;;;;;;1.67;1.23;;;;;;;;;;5016521;28;20455;-76
2023/05/10 13:40:16;;;;;;;1.03;1.03;;;;;;;;;;5015898;28;20501;-77
2023/05/10 13:48:25;;;;;;;3.03;1.13;;;;;;;;;;5013811;28;20463;-76
2023/05/10 13:51:05;;;;;;;5.70;1.47;;;;;;;;;;5015083;28;20447;-77
2023/05/10 13:53:42;;;;;;;2.47;2.27;;;;;;;;;;5017133;28;20497;-76
2023/05/10 13:56:21;;;;;;;1.60;1.27;;;;;;;;;;5016372;28;20451;-77
2023/05/10 13:58:52;;;;;;;2.17;1.40;;;;;;;;;;5018709;28;20454;-76
2023/05/10 14:01:25;;;;;;;1.10;1.10;;;;;;;;;;5022124;28;20444;-76
2023/05/10 14:03:57;;;;;;;2.53;1.37;;;;;;;;;;5022640;28;20479;-75
2023/05/10 14:06:34;;;;;;;3.33;1.50;;;;;;;;;;5025573;28;20455;-77
2023/05/10 14:09:07;;;;;;;3.13;1.40;;;;;;;;;;5024920;28;20554;-74
2023/05/10 14:11:35;;;;;;;2.37;1.20;;;;;;;;;;5023582;28;20459;-76
2023/05/10 14:14:03;;;;;;;4.27;1.33;;;;;;;;;;5024512;28;20513;-78
2023/05/10 14:16:32;;;;;;;4.77;1.43;;;;;;;;;;5029974;28;20475;-75
2023/05/10 14:19:01;;;;;;;2.60;0.80;;;;;;;;;;5030993;28;20845;-77
2023/05/10 14:21:30;;;;;;;2.00;1.50;;;;;;;;;;5030076;28;21470;-78
2023/05/10 14:24:00;;;;;;;1.70;0.90;;;;;;;;;;5031681;28;20510;-76
2023/05/10 14:26:30;;;;;;;1.03;0.93;;;;;;;;;;5029225;28;20534;-76
2023/05/10 14:29:03;;;;;;;1.10;1.10;;;;;;;;;;5022619;28;20495;-77
2023/05/10 14:31:41;;;;;;;1.40;1.10;;;;;;;;;;5016833;28;20468;-76
2023/05/10 14:34:16;;;;;;;1.23;1.10;;;;;;;;;;5019589;28;20443;-76
2023/05/10 14:36:47;;;;;;;1.00;0.90;;;;;;;;;;5019320;28;20455;-77
2023/05/10 14:39:16;;;;;;;2.07;1.10;;;;;;;;;;5018137;28;20479;-77
2023/05/10 14:41:47;;;;;;;1.47;1.37;;;;;;;;;;5019036;28;20450;-75
2023/05/10 14:44:16;;;;;;;1.00;0.90;;;;;;;;;;5019413;28;20527;-76
2023/05/10 14:46:46;;;;;;;2.10;1.10;;;;;;;;;;5017431;28;20452;-77
2023/05/10 14:49:25;;;;;;;1.80;0.90;;;;;;;;;;5020246;28;20482;-76
2023/05/10 14:51:57;;;;;;;2.00;1.30;;;;;;;;;;5020035;28;20461;-76
2023/05/10 14:54:25;;;;;;;1.10;1.00;;;;;;;;;;5021160;28;20455;-78
2023/05/10 14:56:56;;;;;;;1.33;0.87;;;;;;;;;;5016464;28;20537;-78
2023/05/10 14:59:24;;;;;;;0.93;0.90;;;;;;;;;;5015616;28;20469;-75
2023/05/10 15:01:55;;;;;;;2.43;1.30;;;;;;;;;;5017189;28;20463;-77
2023/05/10 15:04:25;;;;;;;2.10;1.03;;;;;;;;;;5020684;28;20506;-76
2023/05/10 15:07:06;;;;;;;1.83;1.73;;;;;;;;;;5022294;28;20462;-75
2023/05/10 15:10:06;;;;;;;0.87;0.87;;;;;;;;;;5026865;28;20860;-78
2023/05/10 15:12:37;;;;;;;2.80;1.00;;;;;;;;;;5016988;28;20977;-76
2023/05/10 15:15:10;;;;;;;1.53;1.10;;;;;;;;;;5016143;28;20976;-77
2023/05/10 15:17:39;;;;;;;0.80;0.80;;;;;;;;;;5014769;28;20447;-77
2023/05/10 15:20:17;;;;;;;2.17;1.10;;;;;;;;;;5014536;28;20503;-75
2023/05/10 15:22:45;;;;;;;1.73;0.90;;;;;;;;;;5014210;28;20831;-75
2023/05/10 15:25:22;;;;;;;0.83;0.83;;;;;;;;;;5013989;28;20483;-78
2023/05/10 15:27:57;;;;;;;0.93;0.90;;;;;;;;;;5013203;28;20871;-76
2023/05/10 15:30:26;;;;;;;3.07;1.17;;;;;;;;;;5013324;28;20830;-77
2023/05/10 15:33:01;;;;;;;1.33;1.03;;;;;;;;;;5013122;28;20455;-75
2023/05/10 15:35:38;;;;;;;1.00;1.00;;;;;;;;;;5013493;28;20851;-75
2023/05/10 15:38:22;;;;;;;1.73;0.80;;;;;;;;;;5014290;28;20505;-75
2023/05/10 15:43:53;;;;;;;1.70;1.00;;;;;;;;;;5015307;28;20454;-78
2023/05/10 15:46:25;;;;;;;0.90;0.90;;;;;;;;;;5013603;28;20451;-78
2023/05/10 15:51:59;;;;;;;0.97;0.97;;;;;;;;;;5014694;28;20522;-78
2023/05/10 15:54:33;;;;;;;2.53;0.90;;;;;;;;;;5014085;28;20941;-78
2023/05/10 15:57:11;;;;;;;0.67;0.67;;;;;;;;;;5014328;28;20546;-79
2023/05/10 15:59:42;;;;;;;1.57;0.90;;;;;;;;;;5018877;28;20546;-78
2023/05/10 16:02:17;;;;;;;0.80;0.80;;;;;;;;;;5020660;28;20486;-77
2023/05/10 16:04:54;;;;;;;0.73;0.73;;;;;;;;;;5021886;28;20483;-78
2023/05/10 16:07:31;;;;;;;3.13;0.90;;;;;;;;;;5020098;28;20486;-77
2023/05/10 16:10:05;;;;;;;1.50;1.03;;;;;;;;;;5021660;28;20831;-78
2023/05/10 16:12:34;;;;;;;0.83;0.80;;;;;;;;;;5020125;28;20530;-79
2023/05/10 16:15:09;;;;;;;0.67;0.60;;;;;;;;;;5034664;28;20931;-77